Time;durP1;ratioP1;P1;durP2;ratioP2;P2;SDS_P1;SDS_P2;PMS_P1;PMS_P2;Temp;Humidity;BMP_temperature;BMP_pressure;BME280_temperature;BME280_humidity;BME280_pressure;Samples;Min_cycle;Max_cycle;Signal;HPM_P1;HPM_P2
2023/02/21 02:13:56;;;;;;;;;;;;;;;8.65;100.00;101948.13;5027183;28;19925;-65
2023/02/21 02:16:39;;;;;;;;;;;;;;;8.63;100.00;101943.97;5042946;28;19924;-65
2023/02/21 02:19:18;;;;;;;;;;;;;;;8.67;100.00;101937.56;5025351;28;19929;-66
2023/02/21 02:22:07;;;;;;;;;;;;;;;8.63;100.00;101938.72;5039321;28;20449;-65
2023/02/21 02:24:39;;;;;;;;;;;;;;;8.60;100.00;101933.69;5029079;28;19928;-65
2023/02/21 02:27:11;;;;;;;;;;;;;;;8.56;100.00;101940.91;5040549;28;19955;-66
2023/02/21 02:29:39;;;;;;;;;;;;;;;8.55;100.00;101927.97;5050649;28;19925;-65
2023/02/21 02:32:14;;;;;;;;;;;;;;;8.59;100.00;101939.91;5027803;28;19929;-65
2023/02/21 02:34:40;;;;;;;;;;;;;;;8.62;100.00;101939.66;5028138;28;20019;-66
2023/02/21 02:37:16;;;;;;;;;;;;;;;8.60;100.00;101937.16;5027959;28;19925;-65
2023/02/21 02:39:51;;;;;;;;;;;;;;;8.57;100.00;101926.09;5040000;28;19928;-65
2023/02/21 02:42:36;;;;;;;;;;;;;;;8.52;100.00;101937.69;5032684;28;19981;-65
2023/02/21 02:45:06;;;;;;;;;;;;;;;8.46;100.00;101934.66;5039298;28;20270;-65
2023/02/21 02:47:35;;;;;;;;;;;;;;;8.53;100.00;101930.69;5037578;28;20530;-65
2023/02/21 02:50:03;;;;;;;;;;;;;;;8.49;100.00;101930.06;5023616;28;19921;-65
2023/02/21 02:52:29;;;;;;;;;;;;;;;8.42;100.00;101928.78;5044062;28;19932;-65
2023/02/21 02:54:59;;;;;;;;;;;;;;;8.43;100.00;101938.31;5024121;28;20336;-65
2023/02/21 02:57:28;;;;;;;;;;;;;;;8.50;100.00;101929.09;5033391;28;19929;-66
2023/02/21 02:59:55;;;;;;;;;;;;;;;8.52;100.00;101927.22;5025302;28;19921;-65
2023/02/21 03:02:35;;;;;;;;;;;;;;;8.45;100.00;101927.78;5038177;28;19939;-66
2023/02/21 03:05:15;;;;;;;;;;;;;;;8.46;100.00;101925.03;5038487;28;19924;-64
2023/02/21 03:07:49;;;;;;;;;;;;;;;8.40;100.00;101932.44;5037646;28;19978;-65
2023/02/21 03:10:35;;;;;;;;;;;;;;;8.42;100.00;101925.34;5042929;28;19925;-65
2023/02/21 03:13:14;;;;;;;;;;;;;;;8.43;100.00;101924.44;5039662;28;19943;-65
2023/02/21 03:15:46;;;;;;;;;;;;;;;8.40;100.00;101927.19;5032823;28;19931;-65
2023/02/21 03:18:16;;;;;;;;;;;;;;;8.40;100.00;101930.66;5031770;28;19928;-65
2023/02/21 03:20:43;;;;;;;;;;;;;;;8.44;100.00;101932.13;5040918;28;19924;-66
2023/02/21 03:23:13;;;;;;;;;;;;;;;8.45;100.00;101927.78;5027814;28;19921;-65
2023/02/21 03:25:40;;;;;;;;;;;;;;;8.46;100.00;101925.03;5022820;28;19921;-65
2023/02/21 03:28:06;;;;;;;;;;;;;;;8.45;100.00;101925.16;5024955;28;19964;-66
2023/02/21 03:30:32;;;;;;;;;;;;;;;8.46;100.00;101922.41;5028800;28;20024;-66
2023/02/21 03:32:59;;;;;;;;;;;;;;;8.47;100.00;101916.25;5040793;28;19931;-65
2023/02/21 03:35:29;;;;;;;;;;;;;;;8.46;100.00;101919.78;5033671;28;19925;-65
2023/02/21 03:37:56;;;;;;;;;;;;;;;8.39;100.00;101915.91;5037764;28;19932;-66
2023/02/21 03:40:24;;;;;;;;;;;;;;;8.41;100.00;101918.41;5024020;28;19925;-65
2023/02/21 03:42:52;;;;;;;;;;;;;;;8.36;100.00;101928.34;5029517;28;20436;-68
2023/02/21 03:45:18;;;;;;;;;;;;;;;8.35;100.00;101930.16;5029408;28;19951;-66
2023/02/21 03:47:44;;;;;;;;;;;;;;;8.36;100.00;101930.97;5040670;28;19932;-65
2023/02/21 03:50:11;;;;;;;;;;;;;;;8.32;100.00;101925.94;5035969;28;21047;-65
2023/02/21 03:52:37;;;;;;;;;;;;;;;8.38;100.00;101937.75;5027442;28;20378;-65
2023/02/21 03:55:05;;;;;;;;;;;;;;;8.29;100.00;101927.91;5026412;28;20400;-66
2023/02/21 03:57:31;;;;;;;;;;;;;;;8.28;100.00;101934.94;5015911;28;19925;-66
2023/02/21 03:59:57;;;;;;;;;;;;;;;8.32;100.00;101930.34;5038120;28;19928;-66
2023/02/21 04:02:24;;;;;;;;;;;;;;;8.33;100.00;101932.03;5031826;28;19932;-66
2023/02/21 04:04:50;;;;;;;;;;;;;;;8.38;100.00;101929.91;5037993;28;19931;-66
2023/02/21 04:07:18;;;;;;;;;;;;;;;8.43;100.00;101925.25;5038698;28;19932;-66
2023/02/21 04:09:45;;;;;;;;;;;;;;;8.47;100.00;101925.88;5032033;28;19921;-66
2023/02/21 04:12:11;;;;;;;;;;;;;;;8.46;100.00;101925.03;5027535;28;19998;-66
2023/02/21 04:14:38;;;;;;;;;;;;;;;8.46;100.00;101930.25;5031078;28;20419;-66
2023/02/21 04:17:04;;;;;;;;;;;;;;;8.46;100.00;101918.97;5038570;28;19925;-67
2023/02/21 04:19:31;;;;;;;;;;;;;;;8.54;100.00;101926.28;5032253;28;19942;-66
2023/02/21 04:21:57;;;;;;;;;;;;;;;8.46;100.00;101926.81;5049451;28;19925;-67
2023/02/21 04:24:24;;;;;;;;;;;;;;;8.46;100.00;101919.78;5024517;28;20031;-67
2023/02/21 04:26:50;;;;;;;;;;;;;;;8.45;100.00;101914.69;5037364;28;19948;-66
2023/02/21 04:29:16;;;;;;;;;;;;;;;8.39;100.00;101913.31;5037376;28;19932;-67
2023/02/21 04:31:42;;;;;;;;;;;;;;;8.36;100.00;101916.13;5031143;28;20370;-67
2023/02/21 04:34:09;;;;;;;;;;;;;;;8.41;100.00;101921.91;5038252;28;19925;-66
2023/02/21 04:36:38;;;;;;;;;;;;;;;8.39;100.00;101920.28;5031361;28;19920;-66
2023/02/21 04:39:04;;;;;;;;;;;;;;;8.47;100.00;101920.66;5038835;28;19925;-67
2023/02/21 04:41:32;;;;;;;;;;;;;;;8.41;100.00;101921.91;5026023;28;20015;-66
2023/02/21 04:43:58;;;;;;;;;;;;;;;8.41;100.00;101919.28;5029227;28;19925;-67
2023/02/21 04:46:24;;;;;;;;;;;;;;;8.40;100.00;101914.13;5045266;28;19932;-67
2023/02/21 04:48:51;;;;;;;;;;;;;;;8.35;100.00;101911.84;5019844;28;19932;-67
2023/02/21 04:51:20;;;;;;;;;;;;;;;8.36;100.00;101905.66;5033218;28;19925;-67
2023/02/21 04:53:48;;;;;;;;;;;;;;;8.35;100.00;101906.63;5022370;28;19929;-67
2023/02/21 04:56:14;;;;;;;;;;;;;;;8.38;100.00;101902.94;5026869;28;20475;-67
2023/02/21 04:58:41;;;;;;;;;;;;;;;8.34;100.00;101909.31;5028849;28;19925;-67
2023/02/21 05:01:11;;;;;;;;;;;;;;;8.38;100.00;101908.19;5021190;28;19924;-67
2023/02/21 05:03:38;;;;;;;;;;;;;;;8.33;100.00;101908.50;5024192;28;19925;-67
2023/02/21 05:06:05;;;;;;;;;;;;;;;8.34;100.00;101904.94;5022747;28;20282;-67
2023/02/21 05:08:31;;;;;;;;;;;;;;;8.36;100.00;101902.22;5058720;28;20428;-67
2023/02/21 05:10:58;;;;;;;;;;;;;;;8.34;100.00;101898.88;5034086;28;19925;-67
2023/02/21 05:13:24;;;;;;;;;;;;;;;8.36;100.00;101905.66;5039964;28;19925;-67
2023/02/21 05:15:50;;;;;;;;;;;;;;;8.39;100.00;101907.22;5034024;28;19931;-67
2023/02/21 05:18:22;;;;;;;;;;;;;;;8.38;100.00;101911.63;5029523;28;19937;-67
2023/02/21 05:20:49;;;;;;;;;;;;;;;8.33;100.00;101908.50;5040957;28;19924;-67
2023/02/21 05:23:17;;;;;;;;;;;;;;;8.39;100.00;101913.31;5027964;28;19932;-67
2023/02/21 05:25:44;;;;;;;;;;;;;;;8.34;100.00;101912.78;5044842;28;19978;-67
2023/02/21 05:28:10;;;;;;;;;;;;;;;8.39;100.00;101915.91;5032624;28;19921;-67
2023/02/21 05:30:37;;;;;;;;;;;;;;;8.42;100.00;101914.91;5037465;28;19928;-67
2023/02/21 05:33:03;;;;;;;;;;;;;;;8.45;100.00;101910.28;5028800;28;20723;-67
2023/02/21 05:35:29;;;;;;;;;;;;;;;8.47;100.00;101913.63;5024733;28;19936;-67
2023/02/21 05:37:56;;;;;;;;;;;;;;;8.42;100.00;101917.50;5041079;28;20335;-67
2023/02/21 05:40:22;;;;;;;;;;;;;;;8.42;100.00;101914.91;5034272;28;20023;-67
2023/02/21 05:42:48;;;;;;;;;;;;;;;8.39;100.00;101917.66;5039813;28;20452;-66
2023/02/21 05:45:15;;;;;;;;;;;;;;;8.40;100.00;101914.13;5025173;28;20710;-66
2023/02/21 05:47:41;;;;;;;;;;;;;;;8.29;100.00;101918.31;5036901;28;19925;-66
2023/02/21 05:50:08;;;;;;;;;;;;;;;8.27;100.00;101916.72;5033645;28;19925;-66
2023/02/21 05:52:34;;;;;;;;;;;;;;;8.34;100.00;101922.41;5021053;28;19931;-66
2023/02/21 05:55:00;;;;;;;;;;;;;;;8.35;100.00;101913.59;5041372;28;19971;-66
2023/02/21 05:57:27;;;;;;;;;;;;;;;8.31;100.00;101915.59;5029384;28;19932;-66
2023/02/21 05:59:53;;;;;;;;;;;;;;;8.23;100.00;101923.13;5029524;28;20317;-66
2023/02/21 06:02:19;;;;;;;;;;;;;;;8.32;100.00;101912.03;5026473;28;20377;-66
2023/02/21 06:04:46;;;;;;;;;;;;;;;8.35;100.00;101913.59;5030323;28;19975;-66
2023/02/21 06:07:12;;;;;;;;;;;;;;;8.28;100.00;101918.41;5028508;28;19948;-66
2023/02/21 06:09:38;;;;;;;;;;;;;;;8.27;100.00;101914.13;5027065;28;19928;-66
2023/02/21 06:12:05;;;;;;;;;;;;;;;8.28;100.00;101910.59;5031244;28;19978;-66
2023/02/21 06:14:31;;;;;;;;;;;;;;;8.27;100.00;101921.97;5041059;28;19931;-67
2023/02/21 06:17:02;;;;;;;;;;;;;;;8.31;100.00;101916.44;5041669;28;20046;-67
2023/02/21 06:19:29;;;;;;;;;;;;;;;8.28;100.00;101924.47;5035575;28;20329;-68
2023/02/21 06:21:58;;;;;;;;;;;;;;;8.32;100.00;101917.28;5017565;28;19924;-68
2023/02/21 06:24:24;;;;;;;;;;;;;;;8.28;100.00;101916.63;5029559;28;19936;-66
2023/02/21 06:26:51;;;;;;;;;;;;;;;8.23;100.00;101910.91;5020089;28;19925;-67
2023/02/21 06:29:17;;;;;;;;;;;;;;;8.19;100.00;101919.88;5027234;28;19971;-66
2023/02/21 06:31:44;;;;;;;;;;;;;;;8.24;100.00;101915.19;5013684;28;19935;-67
2023/02/21 06:34:11;;;;;;;;;;;;;;;8.23;100.00;101921.38;5045440;28;19932;-67
2023/02/21 06:36:38;;;;;;;;;;;;;;;8.26;100.00;101923.75;5041497;28;19935;-66
2023/02/21 06:39:06;;;;;;;;;;;;;;;8.28;100.00;101921.88;5035854;28;19921;-67
2023/02/21 06:41:33;;;;;;;;;;;;;;;8.24;100.00;101930.03;5027888;28;20015;-68
2023/02/21 06:43:59;;;;;;;;;;;;;;;8.18;100.00;101927.84;5015638;28;20377;-68
2023/02/21 06:46:27;;;;;;;;;;;;;;;8.25;100.00;101926.47;5030406;28;20448;-68
2023/02/21 06:48:53;;;;;;;;;;;;;;;8.24;100.00;101927.41;5032623;28;19924;-67
2023/02/21 06:51:20;;;;;;;;;;;;;;;8.22;100.00;101930.13;5044281;28;19924;-67
2023/02/21 06:53:50;;;;;;;;;;;;;;;8.22;100.00;101926.69;5024070;28;19925;-68
2023/02/21 06:56:16;;;;;;;;;;;;;;;8.18;100.00;101922.59;5034494;28;19968;-67
2023/02/21 06:58:43;;;;;;;;;;;;;;;8.21;100.00;101923.25;5034168;28;19959;-68
2023/02/21 07:01:09;;;;;;;;;;;;;;;8.10;100.00;101920.50;5021446;28;19971;-67
2023/02/21 07:03:39;;;;;;;;;;;;;;;8.10;100.00;101923.94;5018361;28;20015;-68
2023/02/21 07:06:05;;;;;;;;;;;;;;;8.21;100.00;101925.00;5025396;28;20533;-67
2023/02/21 07:08:32;;;;;;;;;;;;;;;8.18;100.00;101918.22;5038524;28;19940;-67
2023/02/21 07:10:58;;;;;;;;;;;;;;;8.16;100.00;101920.09;5042647;28;19931;-67
2023/02/21 07:13:25;;;;;;;;;;;;;;;8.19;100.00;101916.44;5042514;28;19925;-67
2023/02/21 07:15:51;;;;;;;;;;;;;;;8.22;100.00;101916.22;5040420;28;19925;-67
2023/02/21 07:18:17;;;;;;;;;;;;;;;8.19;100.00;101926.88;5030280;28;19935;-67
2023/02/21 07:20:44;;;;;;;;;;;;;;;8.15;100.00;101930.66;5038725;28;19924;-67
2023/02/21 07:23:10;;;;;;;;;;;;;;;8.15;100.00;101926.25;5027067;28;19932;-67
2023/02/21 07:25:36;;;;;;;;;;;;;;;8.16;100.00;101929.72;5043697;28;20553;-67
2023/02/21 07:28:03;;;;;;;;;;;;;;;8.15;100.00;101928.03;5029445;28;19932;-67
2023/02/21 07:30:30;;;;;;;;;;;;;;;8.14;100.00;101937.66;5042020;28;19925;-67
2023/02/21 07:32:57;;;;;;;;;;;;;;;8.07;100.00;101934.59;5042326;28;19947;-67
2023/02/21 07:35:24;;;;;;;;;;;;;;;8.05;100.00;101933.88;5019426;28;19929;-67
2023/02/21 07:37:50;;;;;;;;;;;;;;;8.11;100.00;101940.47;5034237;28;19925;-67
2023/02/21 07:40:16;;;;;;;;;;;;;;;8.12;100.00;101937.75;5019444;28;19925;-67
2023/02/21 07:42:43;;;;;;;;;;;;;;;8.17;100.00;101940.03;5045205;28;19924;-66
2023/02/21 07:45:13;;;;;;;;;;;;;;;8.21;100.00;101954.59;5032025;28;19925;-66
2023/02/21 07:47:44;;;;;;;;;;;;;;;8.21;100.00;101949.38;5031845;28;20626;-67
2023/02/21 07:50:14;;;;;;;;;;;;;;;8.16;100.00;101948.00;5026437;28;19927;-67
2023/02/21 07:52:40;;;;;;;;;;;;;;;8.17;100.00;101949.66;5027422;28;19924;-67
2023/02/21 07:55:07;;;;;;;;;;;;;;;8.24;100.00;101946.53;5040684;28;19935;-67
2023/02/21 07:57:34;;;;;;;;;;;;;;;8.25;100.00;101949.97;5025651;28;20344;-67
2023/02/21 08:00:01;;;;;;;;;;;;;;;8.10;100.00;101947.47;5027592;28;19924;-66
2023/02/21 08:02:30;;;;;;;;;;;;;;;8.11;100.00;101945.69;5024906;28;20024;-67
2023/02/21 08:04:56;;;;;;;;;;;;;;;8.09;100.00;101945.78;5022895;28;19970;-66
2023/02/21 08:07:24;;;;;;;;;;;;;;;8.06;100.00;101947.78;5045078;28;19924;-68
2023/02/21 08:09:53;;;;;;;;;;;;;;;8.11;100.00;101945.69;5015047;28;20438;-67
2023/02/21 08:12:19;;;;;;;;;;;;;;;8.18;100.00;101946.13;5033331;28;19935;-67
2023/02/21 08:14:46;;;;;;;;;;;;;;;8.17;100.00;101945.28;5022408;28;20392;-67
2023/02/21 08:17:12;;;;;;;;;;;;;;;8.08;100.00;101956.38;5033597;28;19927;-67
2023/02/21 08:19:39;;;;;;;;;;;;;;;8.15;100.00;101951.56;5031042;28;19971;-67
2023/02/21 08:22:05;;;;;;;;;;;;;;;8.07;100.00;101944.22;5029763;28;19924;-67
2023/02/21 08:24:33;;;;;;;;;;;;;;;8.10;100.00;101951.88;5037201;28;19921;-67
2023/02/21 08:27:00;;;;;;;;;;;;;;;8.09;100.00;101947.56;5010550;28;19925;-66
2023/02/21 08:29:27;;;;;;;;;;;;;;;8.06;100.00;101942.56;4993967;28;19936;-67
2023/02/21 08:31:53;;;;;;;;;;;;;;;8.08;100.00;101938.06;5024681;28;20019;-67
2023/02/21 08:34:20;;;;;;;;;;;;;;;8.03;100.00;101942.75;5033411;28;19921;-67
2023/02/21 08:36:46;;;;;;;;;;;;;;;8.02;100.00;101939.31;5027960;28;19931;-68
2023/02/21 08:39:13;;;;;;;;;;;;;;;8.02;100.00;101946.31;5026018;28;19925;-67
2023/02/21 08:41:41;;;;;;;;;;;;;;;8.09;100.00;101935.34;5035525;28;19925;-67
2023/02/21 08:44:08;;;;;;;;;;;;;;;8.12;100.00;101942.16;5008479;28;20397;-67
2023/02/21 08:46:35;;;;;;;;;;;;;;;8.05;100.00;101938.25;5036883;28;19971;-67
2023/02/21 08:49:02;;;;;;;;;;;;;;;8.10;100.00;101936.19;5036655;28;19979;-66
2023/02/21 08:51:30;;;;;;;;;;;;;;;8.18;100.00;101936.50;5035483;28;19924;-65
2023/02/21 08:53:56;;;;;;;;;;;;;;;8.22;100.00;101927.50;5036407;28;20013;-67
2023/02/21 08:56:24;;;;;;;;;;;;;;;8.22;100.00;101932.75;5026398;28;20404;-67
2023/02/21 08:58:50;;;;;;;;;;;;;;;8.22;100.00;101929.31;5022571;28;19924;-68
2023/02/21 09:01:16;;;;;;;;;;;;;;;8.15;100.00;101933.25;5033196;28;20290;-67
2023/02/21 09:03:43;;;;;;;;;;;;;;;8.26;100.00;101938.59;5031948;28;20026;-68
2023/02/21 09:06:09;;;;;;;;;;;;;;;8.32;100.00;101938.19;5029001;28;19925;-67
2023/02/21 09:08:37;;;;;;;;;;;;;;;8.36;100.00;101937.03;5036308;28;19931;-67
2023/02/21 09:11:03;;;;;;;;;;;;;;;8.30;100.00;101930.44;5029435;28;19925;-67
2023/02/21 09:13:31;;;;;;;;;;;;;;;8.31;100.00;101929.50;5022158;28;19991;-67
2023/02/21 09:15:58;;;;;;;;;;;;;;;8.29;100.00;101926.16;5034012;28;19932;-68
2023/02/21 09:18:25;;;;;;;;;;;;;;;8.32;100.00;101925.94;5038711;28;19924;-67
2023/02/21 09:20:52;;;;;;;;;;;;;;;8.21;100.00;101917.16;5031200;28;19928;-67
2023/02/21 09:23:19;;;;;;;;;;;;;;;8.25;100.00;101916.88;5021132;28;19929;-67
2023/02/21 09:25:46;;;;;;;;;;;;;;;8.27;100.00;101922.81;5026650;28;19932;-67
2023/02/21 09:28:13;;;;;;;;;;;;;;;8.20;100.00;101918.13;5036516;28;20460;-67
2023/02/21 09:30:39;;;;;;;;;;;;;;;8.24;100.00;101914.34;5029526;28;19924;-66
2023/02/21 09:33:06;;;;;;;;;;;;;;;8.31;100.00;101916.44;5040219;28;20015;-67
2023/02/21 09:35:33;;;;;;;;;;;;;;;8.28;100.00;101916.63;5037030;28;19925;-66
2023/02/21 09:38:00;;;;;;;;;;;;;;;8.40;100.00;101911.53;5030762;28;19988;-67
2023/02/21 09:40:26;;;;;;;;;;;;;;;8.44;100.00;101908.59;5026488;28;19940;-68
2023/02/21 09:42:56;;;;;;;;;;;;;;;8.41;100.00;101901.00;5023330;28;19929;-67
2023/02/21 09:45:29;;;;;;;;;;;;;;;8.34;100.00;101907.53;5042675;28;19932;-67
2023/02/21 09:48:02;;;;;;;;;;;;;;;8.39;100.00;101905.47;5030720;28;19924;-67
2023/02/21 09:50:33;;;;;;;;;;;;;;;8.41;100.00;101903.59;5037275;28;20437;-67
2023/02/21 09:53:00;;;;;;;;;;;;;;;8.43;100.00;101906.13;5025222;28;19931;-67
2023/02/21 09:55:32;;;;;;;;;;;;;;;8.42;100.00;101904.44;5035582;28;19920;-68
2023/02/21 09:57:58;;;;;;;;;;;;;;;8.48;100.00;101904.84;5019083;28;19929;-65
2023/02/21 10:00:35;;;;;;;;;;;;;;;8.46;100.00;101909.34;5027804;28;20389;-66
2023/02/21 10:03:21;;;;;;;;;;;;;;;8.51;100.00;101902.03;5035253;28;20052;-67
2023/02/21 10:05:59;;;;;;;;;;;;;;;8.41;100.00;101900.09;5020894;28;19924;-67
2023/02/21 10:08:37;;;;;;;;;;;;;;;8.40;100.00;101907.13;5029888;28;19932;-68
2023/02/21 10:11:25;;;;;;;;;;;;;;;8.43;100.00;101904.34;5005922;28;19921;-67
2023/02/21 10:13:55;;;;;;;;;;;;;;;8.40;100.00;101904.50;5030043;28;19931;-68
2023/02/21 10:16:21;;;;;;;;;;;;;;;8.46;100.00;101911.94;5034093;28;21792;-67
2023/02/21 10:19:00;;;;;;;;;;;;;;;8.55;100.00;101899.22;5044319;28;20011;-67
2023/02/21 10:21:44;;;;;;;;;;;;;;;8.55;100.00;101910.50;5032530;28;19967;-67
2023/02/21 10:24:12;;;;;;;;;;;;;;;8.54;100.00;101907.97;5035550;28;19925;-67
2023/02/21 10:26:41;;;;;;;;;;;;;;;8.61;100.00;101917.09;5021444;28;20015;-67
2023/02/21 10:29:20;;;;;;;;;;;;;;;8.64;100.00;101906.38;5035395;28;20545;-66
2023/02/21 10:31:47;;;;;;;;;;;;;;;8.60;100.00;101905.75;5038851;28;19944;-67
2023/02/21 10:34:21;;;;;;;;;;;;;;;8.61;100.00;101915.28;5030044;28;19956;-67
2023/02/21 10:36:48;;;;;;;;;;;;;;;8.67;100.00;101914.03;5029806;28;19924;-67
2023/02/21 10:39:17;;;;;;;;;;;;;;;8.56;100.00;101929.63;5026617;28;20039;-67
2023/02/21 10:41:43;;;;;;;;;;;;;;;8.60;100.00;101907.56;5038229;28;19925;-66
2023/02/21 10:44:17;;;;;;;;;;;;;;;8.65;100.00;101910.69;5036774;28;19924;-68
2023/02/21 10:46:51;;;;;;;;;;;;;;;8.61;100.00;101911.84;5034066;28;20371;-66
2023/02/21 10:49:23;;;;;;;;;;;;;;;8.67;100.00;101909.63;5022234;28;19925;-67
2023/02/21 10:52:22;;;;;;;;;;;;;;;8.68;100.00;101905.22;5023037;28;20294;-66
2023/02/21 10:55:14;;;;;;;;;;;;;;;8.67;100.00;101908.81;5001692;28;19924;-66
2023/02/21 10:57:58;;;;;;;;;;;;;;;8.73;100.00;101903.13;5036269;28;20428;-66
2023/02/21 11:00:27;;;;;;;;;;;;;;;8.79;100.00;101904.50;5040082;28;19971;-66
2023/02/21 11:03:01;;;;;;;;;;;;;;;8.83;100.00;101903.31;5033153;28;19921;-66
2023/02/21 11:05:28;;;;;;;;;;;;;;;8.88;100.00;101909.91;5038343;28;20020;-66
2023/02/21 11:07:59;;;;;;;;;;;;;;;8.89;100.00;101903.72;5023167;28;20293;-66
2023/02/21 11:10:30;;;;;;;;;;;;;;;8.89;100.00;101906.34;5045259;28;19931;-66
2023/02/21 11:13:05;;;;;;;;;;;;;;;8.97;100.00;101908.41;5031441;28;20439;-65
2023/02/21 11:15:32;;;;;;;;;;;;;;;8.91;100.00;101908.84;5044466;28;19924;-66
2023/02/21 11:18:21;;;;;;;;;;;;;;;8.98;100.00;101904.03;5036508;28;19924;-66
2023/02/21 11:20:47;;;;;;;;;;;;;;;9.02;100.00;101903.69;5039058;28;19924;-66
2023/02/21 11:23:25;;;;;;;;;;;;;;;9.07;100.00;101903.34;5043993;28;19928;-66
2023/02/21 11:26:11;;;;;;;;;;;;;;;9.08;100.00;101900.63;5036887;28;20377;-66
2023/02/21 11:28:38;;;;;;;;;;;;;;;9.03;100.00;101902.72;5042427;28;20019;-66
2023/02/21 11:31:10;;;;;;;;;;;;;;;9.05;100.00;101906.06;5023785;28;19925;-66
2023/02/21 11:33:41;;;;;;;;;;;;;;;9.00;100.00;101902.97;5032939;28;20459;-66
2023/02/21 11:36:13;;;;;;;;;;;;;;;9.03;100.00;101901.91;5025082;28;19921;-66
2023/02/21 11:38:42;;;;;;;;;;;;;;;9.07;100.00;101896.31;5038432;28;19925;-66
2023/02/21 11:41:28;;;;;;;;;;;;;;;9.06;100.00;101897.28;5045207;28;19963;-66
2023/02/21 11:43:55;;;;;;;;;;;;;;;9.06;100.00;101896.47;5042282;28;19925;-66
2023/02/21 11:46:22;;;;;;;;;;;;;;;8.90;100.00;101901.97;5032143;28;20112;-66
2023/02/21 11:48:57;;;;;;;;;;;;;;;8.88;100.00;101898.63;5028443;28;20675;-66
2023/02/21 11:51:24;;;;;;;;;;;;;;;8.81;100.00;101895.59;5028740;28;19933;-66
2023/02/21 11:53:50;;;;;;;;;;;;;;;8.79;100.00;101892.25;5036931;28;19955;-66
2023/02/21 11:56:20;;;;;;;;;;;;;;;8.86;100.00;101890.88;5042702;28;19925;-66
2023/02/21 11:58:46;;;;;;;;;;;;;;;8.88;100.00;101882.91;5029274;28;19925;-66
2023/02/21 12:01:16;;;;;;;;;;;;;;;8.90;100.00;101888.88;5020180;28;19921;-65
2023/02/21 12:03:42;;;;;;;;;;;;;;;8.93;100.00;101882.56;5043680;28;19920;-66
2023/02/21 12:06:21;;;;;;;;;;;;;;;8.88;100.00;101880.31;5031876;28;20369;-66
2023/02/21 12:08:51;;;;;;;;;;;;;;;8.76;100.00;101887.25;5033887;28;19925;-66
2023/02/21 12:11:17;;;;;;;;;;;;;;;8.84;100.00;101881.44;5030951;28;19921;-66
2023/02/21 12:14:05;;;;;;;;;;;;;;;8.76;100.00;101889.00;5039722;28;19935;-66
2023/02/21 12:16:34;;;;;;;;;;;;;;;8.78;100.00;101887.09;5035017;28;20595;-66
2023/02/21 12:19:00;;;;;;;;;;;;;;;8.69;100.00;101886.81;5044280;28;19925;-66
2023/02/21 12:21:44;;;;;;;;;;;;;;;8.65;100.00;101887.16;5041575;28;20380;-66
2023/02/21 12:24:17;;;;;;;;;;;;;;;8.65;100.00;101887.16;5021499;28;20179;-66
2023/02/21 12:26:43;;;;;;;;;;;;;;;8.65;100.00;101871.47;5038572;28;19928;-66
2023/02/21 12:29:31;;;;;;;;;;;;;;;8.58;100.00;101876.25;5034118;28;19929;-66
2023/02/21 12:32:09;;;;;;;;;;;;;;;8.62;100.00;101876.88;5037773;28;19921;-65
2023/02/21 12:34:45;;;;;;;;;;;;;;;8.60;100.00;101866.53;5038120;28;19964;-65
2023/02/21 12:37:17;;;;;;;;;;;;;;;8.68;100.00;101871.22;5042795;28;19924;-66
2023/02/21 12:39:47;;;;;;;;;;;;;;;8.62;100.00;101869.03;5025762;28;20051;-66
2023/02/21 12:42:19;;;;;;;;;;;;;;;8.55;100.00;101868.66;5018320;28;19932;-66
2023/02/21 12:45:04;;;;;;;;;;;;;;;8.60;100.00;101866.53;5032801;28;19924;-66
2023/02/21 12:47:38;;;;;;;;;;;;;;;8.67;100.00;101854.69;5046788;28;19921;-66
2023/02/21 12:50:13;;;;;;;;;;;;;;;8.69;100.00;101849.38;5035750;28;19925;-66
2023/02/21 12:52:47;;;;;;;;;;;;;;;8.63;100.00;101847.19;5033351;28;19929;-66
2023/02/21 12:55:21;;;;;;;;;;;;;;;8.66;100.00;101850.44;5023848;28;19924;-66
2023/02/21 12:57:50;;;;;;;;;;;;;;;8.66;100.00;101845.19;5016729;28;19921;-65
2023/02/21 13:00:21;;;;;;;;;;;;;;;8.65;100.00;101851.34;5055292;28;19925;-66
2023/02/21 13:02:54;;;;;;;;;;;;;;;8.61;100.00;101849.09;5036286;28;19921;-66
2023/02/21 13:05:32;;;;;;;;;;;;;;;8.68;100.00;101842.44;5036368;28;20434;-66
2023/02/21 13:08:00;;;;;;;;;;;;;;;8.82;100.00;101844.09;5026590;28;19993;-66
2023/02/21 13:10:31;;;;;;;;;;;;;;;8.83;100.00;101830.06;5037073;28;19924;-66
2023/02/21 13:13:01;;;;;;;;;;;;;;;8.83;100.00;101830.06;5039158;28;19924;-67
2023/02/21 13:15:29;;;;;;;;;;;;;;;8.85;100.00;101823.78;5026699;28;20312;-66
2023/02/21 13:17:59;;;;;;;;;;;;;;;8.81;100.00;101826.72;5038217;28;19921;-66
2023/02/21 13:20:28;;;;;;;;;;;;;;;8.84;100.00;101826.50;5027287;28;20296;-66
2023/02/21 13:23:13;;;;;;;;;;;;;;;8.87;100.00;101815.81;5022112;28;19999;-65
2023/02/21 13:25:48;;;;;;;;;;;;;;;8.92;100.00;101816.34;5031944;28;20007;-66
2023/02/21 13:28:22;;;;;;;;;;;;;;;8.92;100.00;101813.72;5043280;28;20304;-66
2023/02/21 13:30:56;;;;;;;;;;;;;;;8.96;100.00;101809.94;5032521;28;19925;-66
2023/02/21 13:33:37;;;;;;;;;;;;;;;8.95;100.00;101821.31;5036464;28;19964;-67
2023/02/21 13:36:26;;;;;;;;;;;;;;;8.95;100.00;101810.03;5034832;28;19936;-66
2023/02/21 13:39:08;;;;;;;;;;;;;;;8.97;100.00;101806.34;5025353;28;20015;-66
2023/02/21 13:41:37;;;;;;;;;;;;;;;9.00;100.00;101805.31;5048343;28;20301;-66
2023/02/21 13:44:06;;;;;;;;;;;;;;;8.91;100.00;101799.78;5041362;28;19925;-66
2023/02/21 13:46:34;;;;;;;;;;;;;;;8.93;100.00;101807.53;5031869;28;20031;-66
2023/02/21 13:49:19;;;;;;;;;;;;;;;9.03;100.00;101807.69;5025472;28;19968;-66
2023/02/21 13:51:46;;;;;;;;;;;;;;;9.08;100.00;101806.41;5054558;28;19951;-66
2023/02/21 13:54:19;;;;;;;;;;;;;;;9.08;100.00;101808.19;5037164;28;20393;-67
2023/02/21 13:56:47;;;;;;;;;;;;;;;9.02;100.00;101800.78;5047096;28;19931;-66
2023/02/21 13:59:22;;;;;;;;;;;;;;;9.08;100.00;101801.16;5041663;28;19928;-66
2023/02/21 14:01:49;;;;;;;;;;;;;;;9.08;100.00;101803.78;5043965;28;19924;-67
2023/02/21 14:04:34;;;;;;;;;;;;;;;9.09;100.00;101800.25;5030082;28;19925;-66
2023/02/21 14:07:01;;;;;;;;;;;;;;;9.20;100.00;101803.84;5034321;28;19935;-66
2023/02/21 14:09:27;;;;;;;;;;;;;;;9.30;100.00;101794.34;5044157;28;19929;-66
2023/02/21 14:11:54;;;;;;;;;;;;;;;9.31;100.00;101796.03;5030932;28;20639;-66
2023/02/21 14:14:29;;;;;;;;;;;;;;;9.33;100.00;101785.41;5040450;28;19928;-67
2023/02/21 14:17:03;;;;;;;;;;;;;;;9.35;100.00;101789.63;5032878;28;19921;-67
2023/02/21 14:19:30;;;;;;;;;;;;;;;9.44;100.00;101794.13;5039423;28;19964;-66
2023/02/21 14:22:08;;;;;;;;;;;;;;;9.45;100.00;101792.38;5033580;28;20349;-66
2023/02/21 14:24:36;;;;;;;;;;;;;;;9.46;100.00;101789.63;5038593;28;19924;-67
2023/02/21 14:27:08;;;;;;;;;;;;;;;9.46;100.00;101784.38;5039771;28;19967;-67
2023/02/21 14:29:42;;;;;;;;;;;;;;;9.44;100.00;101785.47;5031253;28;19921;-67
2023/02/21 14:32:08;;;;;;;;;;;;;;;9.43;100.00;101789.88;5040086;28;19927;-66
2023/02/21 14:34:47;;;;;;;;;;;;;;;9.47;100.00;101783.44;5031189;28;19960;-66
2023/02/21 14:37:13;;;;;;;;;;;;;;;9.43;100.00;101778.56;5036477;28;19971;-67
2023/02/21 14:39:42;;;;;;;;;;;;;;;9.43;100.00;101779.41;5027908;28;20383;-67
2023/02/21 14:42:15;;;;;;;;;;;;;;;9.38;100.00;101785.94;5028873;28;20549;-67
2023/02/21 14:44:55;;;;;;;;;;;;;;;9.25;100.00;101786.84;5026788;28;19963;-67
2023/02/21 14:47:32;;;;;;;;;;;;;;;9.23;100.00;101787.88;5033371;28;19999;-67
2023/02/21 14:50:34;;;;;;;;;;;;;;;9.22;100.00;101788.84;5027111;28;19925;-67
2023/02/21 14:53:08;;;;;;;;;;;;;;;9.28;100.00;101786.59;4962044;28;20077;-67
2023/02/21 14:55:53;;;;;;;;;;;;;;;9.28;100.00;101783.16;4972490;28;20029;-66
2023/02/21 14:58:30;;;;;;;;;;;;;;;9.32;100.00;101778.53;4950894;28;19926;-67
2023/02/21 15:01:04;;;;;;;;;;;;;;;9.36;100.00;101769.50;4956150;28;20543;-66
2023/02/21 15:03:34;;;;;;;;;;;;;;;9.35;100.00;101771.28;4960614;28;19930;-67